Time;durP1;ratioP1;P1;durP2;ratioP2;P2;SDS_P1;SDS_P2;PMS_P1;PMS_P2;Temp;Humidity;BMP_temperature;BMP_pressure;BME280_temperature;BME280_humidity;BME280_pressure;Samples;Min_cycle;Max_cycle;Signal;HPM_P1;HPM_P2
2021/05/20 00:02:12;;;;;;;3.15;1.20;;;;;;;8.77;86.52;98871.28;5045723;28;20340;-66
2021/05/20 00:04:38;;;;;;;1.50;1.17;;;;;;;8.75;86.67;98878.31;5045798;28;20021;-66
2021/05/20 00:07:03;;;;;;;1.45;1.10;;;;;;;8.71;86.28;98873.94;5045636;28;20091;-66
2021/05/20 00:09:29;;;;;;;3.85;1.42;;;;;;;8.74;86.36;98871.28;5045593;28;20109;-66
2021/05/20 00:11:55;;;;;;;1.88;1.50;;;;;;;8.71;86.08;98871.31;5045855;28;20027;-66
2021/05/20 00:14:21;;;;;;;2.28;1.08;;;;;;;8.68;86.01;98873.97;5045669;28;20022;-66
2021/05/20 00:16:47;;;;;;;3.80;1.10;;;;;;;8.71;86.05;98881.81;5045697;28;20021;-66
2021/05/20 00:19:12;;;;;;;1.50;1.20;;;;;;;8.80;86.26;98871.25;5044805;28;20024;-66
2021/05/20 00:21:38;;;;;;;3.15;1.13;;;;;;;8.80;85.83;98871.25;5045263;28;20017;-66
2021/05/20 00:24:04;;;;;;;1.83;1.35;;;;;;;8.91;86.17;98873.78;5045504;28;20089;-66
2021/05/20 00:26:30;;;;;;;2.10;1.10;;;;;;;8.98;86.04;98874.63;5045307;28;20028;-66
2021/05/20 00:28:56;;;;;;;1.10;1.00;;;;;;;8.98;86.02;98880.72;5053335;28;20101;-66
2021/05/20 00:31:21;;;;;;;2.45;1.20;;;;;;;8.94;86.60;98879.00;5041033;28;20041;-64
2021/05/20 00:33:46;;;;;;;3.38;1.30;;;;;;;8.98;86.15;98879.84;5045479;28;20024;-64
2021/05/20 00:36:12;;;;;;;1.85;1.20;;;;;;;9.00;86.00;98878.06;5045377;28;20200;-64
2021/05/20 00:38:38;;;;;;;1.70;1.20;;;;;;;8.97;85.85;98878.09;5045364;28;20032;-64
2021/05/20 00:41:04;;;;;;;1.27;1.15;;;;;;;8.94;85.51;98888.63;5045338;28;20059;-64
2021/05/20 00:43:29;;;;;;;2.55;1.35;;;;;;;8.97;86.24;98883.34;5045170;28;20021;-64
2021/05/20 00:45:55;;;;;;;2.28;1.30;;;;;;;9.00;85.68;98884.19;5045107;28;20186;-64
2021/05/20 00:48:20;;;;;;;1.38;1.20;;;;;;;9.09;85.76;98885.88;5044950;28;20399;-64
2021/05/20 00:50:46;;;;;;;1.80;1.45;;;;;;;9.18;85.82;98893.66;5045043;28;20031;-64
2021/05/20 00:53:12;;;;;;;4.07;1.50;;;;;;;9.32;85.34;98892.63;5044815;28;20032;-64
2021/05/20 00:55:39;;;;;;;2.88;1.42;;;;;;;9.28;85.95;98892.69;5044485;28;20022;-64
2021/05/20 00:58:07;;;;;;;4.50;1.48;;;;;;;9.45;85.37;98889.00;5044679;28;20270;-64
2021/05/20 01:00:32;;;;;;;2.58;1.50;;;;;;;9.34;85.33;98890.00;5044950;28;20075;-64
2021/05/20 01:02:59;;;;;;;2.85;1.23;;;;;;;9.34;85.58;98890.00;5053505;23;20112;-65
2021/05/20 01:05:24;;;;;;;2.85;1.50;;;;;;;9.38;85.28;98883.81;5025119;28;20021;-66
2021/05/20 01:07:50;;;;;;;2.30;1.20;;;;;;;9.51;85.52;98888.03;5025060;28;20025;-66
2021/05/20 01:10:15;;;;;;;1.67;1.17;;;;;;;9.45;85.39;98883.72;5025061;28;20028;-66
2021/05/20 01:12:41;;;;;;;1.10;1.00;;;;;;;9.51;85.57;98890.66;5024980;28;20045;-66
2021/05/20 01:15:24;;;;;;;1.20;1.10;;;;;;;9.49;85.00;98890.69;5024867;28;20124;-66
2021/05/20 01:17:54;;;;;;;1.60;1.50;;;;;;;9.40;85.75;98890.78;5024946;28;20034;-66
2021/05/20 01:20:27;;;;;;;1.98;1.45;;;;;;;9.37;85.08;98895.22;5025119;28;20022;-66
2021/05/20 01:23:00;;;;;;;3.83;1.60;;;;;;;9.35;85.30;98894.34;5024810;28;20047;-66
2021/05/20 01:25:26;;;;;;;2.10;1.42;;;;;;;9.25;85.42;98900.59;5024773;28;20026;-66
2021/05/20 01:27:52;;;;;;;3.10;1.50;;;;;;;9.31;84.96;98905.78;5024765;28;20048;-66
2021/05/20 01:30:18;;;;;;;3.05;2.00;;;;;;;9.24;85.13;98909.38;5024316;28;20028;-66
2021/05/20 01:32:43;;;;;;;5.97;1.70;;;;;;;9.23;85.40;98900.59;5024047;28;20204;-66
2021/05/20 01:35:09;;;;;;;4.28;1.83;;;;;;;9.04;85.68;98900.78;5024281;28;20063;-66
2021/05/20 01:37:34;;;;;;;2.40;1.60;;;;;;;9.11;85.71;98903.34;5024420;28;20029;-66
2021/05/20 01:40:00;;;;;;;1.88;1.55;;;;;;;9.02;85.82;98905.19;5024603;28;20026;-66
2021/05/20 01:42:25;;;;;;;2.60;1.83;;;;;;;9.02;86.17;98907.81;5024510;28;20021;-66
2021/05/20 01:44:52;;;;;;;1.77;1.60;;;;;;;9.05;86.35;98907.78;5024469;28;20085;-66
2021/05/20 01:47:18;;;;;;;3.92;2.53;;;;;;;9.16;85.81;98919.06;5024434;28;20044;-66
2021/05/20 01:49:52;;;;;;;2.80;2.10;;;;;;;9.10;86.03;98912.13;5024396;28;20316;-66
2021/05/20 01:52:19;;;;;;;2.95;1.80;;;;;;;9.13;86.20;98916.44;5024334;28;20032;-66
2021/05/20 01:54:44;;;;;;;3.72;2.08;;;;;;;9.14;86.09;98911.19;5024250;28;20018;-66
2021/05/20 01:57:09;;;;;;;3.55;2.03;;;;;;;9.18;86.01;98907.69;5024085;28;20025;-66
2021/05/20 01:59:35;;;;;;;3.78;2.13;;;;;;;9.22;85.51;98916.38;5024088;28;20025;-66
2021/05/20 02:02:00;;;;;;;2.75;2.10;;;;;;;9.17;85.86;98913.78;5020661;28;20105;-66
2021/05/20 02:04:26;;;;;;;2.50;2.30;;;;;;;9.14;87.07;98923.47;5004762;28;20225;-66
2021/05/20 02:06:51;;;;;;;3.63;2.72;;;;;;;9.13;86.42;98916.44;5005889;28;20081;-66
2021/05/20 02:09:16;;;;;;;3.58;2.40;;;;;;;9.22;86.65;98919.00;5015535;28;20025;-66
2021/05/20 02:11:42;;;;;;;7.15;3.40;;;;;;;9.17;86.27;98912.94;5024160;28;20049;-66
2021/05/20 02:14:07;;;;;;;4.40;3.40;;;;;;;9.23;86.21;98913.72;5023904;28;20025;-66
2021/05/20 02:16:33;;;;;;;4.68;3.00;;;;;;;9.38;85.45;98925.84;5009550;28;20040;-66
2021/05/20 02:18:58;;;;;;;2.83;2.50;;;;;;;9.37;85.42;98926.75;5008900;28;20287;-66
2021/05/20 02:21:24;;;;;;;3.83;2.35;;;;;;;9.40;85.78;98927.56;5024088;28;20212;-67
2021/05/20 02:23:49;;;;;;;5.72;2.67;;;;;;;9.34;85.41;98924.16;5024041;28;20030;-66
2021/05/20 02:26:15;;;;;;;4.10;2.70;;;;;;;9.34;85.84;98921.53;5012356;28;20022;-66
2021/05/20 02:28:41;;;;;;;3.53;2.47;;;;;;;9.35;86.01;98931.13;5005529;28;20085;-66
2021/05/20 02:31:06;;;;;;;5.13;2.20;;;;;;;9.30;86.37;98930.31;5004395;28;20014;-66
2021/05/20 02:33:32;;;;;;;4.15;2.72;;;;;;;9.40;86.33;98926.72;5004327;28;20032;-66
2021/05/20 02:35:57;;;;;;;3.05;2.50;;;;;;;9.38;85.30;98929.34;5008665;28;20221;-66
2021/05/20 02:38:22;;;;;;;4.28;3.00;;;;;;;9.33;86.05;98931.13;5004261;28;20038;-66
2021/05/20 02:40:48;;;;;;;4.45;3.00;;;;;;;9.29;86.20;98928.56;5004194;28;20022;-66
2021/05/20 02:43:13;;;;;;;3.92;2.75;;;;;;;9.36;85.45;98930.25;5005289;28;20325;-66
2021/05/20 02:45:39;;;;;;;4.53;2.80;;;;;;;9.38;85.69;98928.47;5013936;28;20017;-66
2021/05/20 02:48:05;;;;;;;3.63;2.80;;;;;;;9.43;85.69;98931.94;5027695;28;20086;-66
2021/05/20 02:50:30;;;;;;;3.50;3.00;;;;;;;9.42;85.96;98928.44;5027624;28;20029;-66
2021/05/20 02:52:56;;;;;;;4.13;2.80;;;;;;;9.40;85.94;98926.72;5027585;28;20045;-66
2021/05/20 02:55:23;;;;;;;3.20;2.42;;;;;;;9.36;85.32;98930.25;5026742;28;20141;-66
2021/05/20 02:57:53;;;;;;;3.50;3.20;;;;;;;9.38;86.05;98928.47;5026721;28;20075;-66
2021/05/20 03:00:21;;;;;;;3.38;2.95;;;;;;;9.44;85.31;98934.56;5027281;28;20213;-66
2021/05/20 03:02:48;;;;;;;3.63;2.42;;;;;;;9.44;86.09;98938.91;5027127;28;20040;-66
2021/05/20 03:05:14;;;;;;;3.58;2.75;;;;;;;9.50;85.84;98944.13;5027090;28;20036;-66
2021/05/20 03:07:39;;;;;;;2.80;2.45;;;;;;;9.47;85.50;98938.91;5024573;28;20025;-66
2021/05/20 03:10:07;;;;;;;4.63;3.00;;;;;;;9.42;85.95;98935.44;5007755;28;20037;-66
2021/05/20 03:12:33;;;;;;;4.18;3.08;;;;;;;9.43;85.60;98942.44;5007561;28;20019;-66
2021/05/20 03:14:59;;;;;;;6.75;3.72;;;;;;;9.37;85.66;98937.25;5007824;28;20022;-66
2021/05/20 03:17:25;;;;;;;4.25;3.35;;;;;;;9.38;86.43;98944.22;5022429;28;20212;-66
2021/05/20 03:19:50;;;;;;;5.00;3.88;;;;;;;9.39;85.74;98941.59;5027087;28;20036;-66
2021/05/20 03:22:16;;;;;;;3.80;3.40;;;;;;;9.41;85.73;98938.94;5019799;28;20022;-66
2021/05/20 03:24:42;;;;;;;3.47;3.17;;;;;;;9.36;85.57;98940.78;5007386;28;20029;-66
2021/05/20 03:27:07;;;;;;;5.22;3.17;;;;;;;9.44;85.78;98939.81;5019222;28;20017;-66
2021/05/20 03:29:32;;;;;;;3.72;3.33;;;;;;;9.34;84.91;98932.91;5026648;28;20045;-66
2021/05/20 03:31:58;;;;;;;7.20;4.05;;;;;;;9.26;85.22;98939.97;5026881;28;20029;-66
2021/05/20 03:34:23;;;;;;;7.65;3.90;;;;;;;9.19;85.69;98940.03;5026534;28;20025;-66
2021/05/20 03:36:49;;;;;;;4.55;3.67;;;;;;;9.18;86.01;98935.69;5026750;28;20024;-66
2021/05/20 03:39:14;;;;;;;4.85;3.92;;;;;;;9.10;85.70;98937.50;5026741;28;20061;-66
2021/05/20 03:41:40;;;;;;;3.50;3.17;;;;;;;9.10;86.28;98937.50;5025838;28;20052;-66
2021/05/20 03:44:05;;;;;;;5.28;3.53;;;;;;;9.11;85.90;98944.50;5007094;28;20042;-66
2021/05/20 03:46:31;;;;;;;5.90;4.00;;;;;;;9.07;85.69;98942.75;5007062;28;20038;-66
2021/05/20 03:48:56;;;;;;;4.90;3.65;;;;;;;9.18;86.01;98946.19;5006885;28;20026;-66
2021/05/20 03:51:21;;;;;;;5.80;4.03;;;;;;;9.17;85.94;98950.56;5006833;28;20048;-66
2021/05/20 03:53:47;;;;;;;7.72;4.38;;;;;;;9.11;85.78;98949.75;5023885;28;20030;-66
2021/05/20 03:56:13;;;;;;;5.55;4.10;;;;;;;9.11;86.34;98961.09;5026354;28;20028;-66
2021/05/20 03:58:38;;;;;;;6.13;4.78;;;;;;;9.31;85.65;98960.94;5025855;28;20022;-66
2021/05/20 04:01:04;;;;;;;6.07;4.75;;;;;;;9.23;85.68;98962.75;5026070;28;20309;-66
2021/05/20 04:03:32;;;;;;;6.28;4.43;;;;;;;9.16;86.08;98968.94;5010858;28;20041;-66
2021/05/20 04:06:02;;;;;;;4.47;3.90;;;;;;;9.08;85.84;98968.16;5025906;28;20018;-66
2021/05/20 04:08:28;;;;;;;6.15;4.10;;;;;;;8.99;86.32;98970.84;5033345;28;20080;-66
2021/05/20 04:10:54;;;;;;;4.65;4.18;;;;;;;8.93;85.45;98982.28;5023865;28;20068;-66
2021/05/20 04:13:35;;;;;;;5.35;4.18;;;;;;;8.94;85.98;98983.13;5016872;28;20014;-66
2021/05/20 04:16:03;;;;;;;5.10;4.00;;;;;;;8.91;86.15;98977.91;5025005;28;20009;-66
2021/05/20 04:18:29;;;;;;;4.82;3.53;;;;;;;8.94;85.85;98988.38;5025023;28;20071;-66
2021/05/20 04:20:54;;;;;;;5.75;4.15;;;;;;;8.85;86.22;98985.84;5008813;28;20217;-66
2021/05/20 04:23:21;;;;;;;4.95;3.38;;;;;;;8.97;85.76;98978.75;5004992;28;20085;-66
2021/05/20 04:25:47;;;;;;;5.38;3.92;;;;;;;8.99;84.68;98976.09;5005337;28;20022;-66
2021/05/20 04:28:14;;;;;;;5.22;3.58;;;;;;;8.90;85.33;98981.41;5005308;28;20030;-66
2021/05/20 04:30:40;;;;;;;4.97;3.63;;;;;;;8.95;85.49;98984.91;5018997;28;20208;-66
2021/05/20 04:33:06;;;;;;;3.83;3.40;;;;;;;8.99;85.33;98976.09;5024805;28;20029;-66
2021/05/20 04:35:33;;;;;;;4.60;3.70;;;;;;;8.97;85.12;98988.34;5038563;28;20021;-66
2021/05/20 04:37:58;;;;;;;6.18;4.18;;;;;;;9.01;84.84;98982.22;5025473;28;20111;-66
2021/05/20 04:40:24;;;;;;;5.82;3.83;;;;;;;9.09;84.67;98977.75;5025839;28;20080;-66
2021/05/20 04:42:51;;;;;;;3.90;3.53;;;;;;;9.14;84.98;98981.25;5025503;28;20022;-66
2021/05/20 04:45:16;;;;;;;5.70;4.60;;;;;;;9.07;84.74;98979.53;5025464;28;20079;-66
2021/05/20 04:47:44;;;;;;;4.90;4.10;;;;;;;9.08;84.95;98986.53;5025508;28;20030;-66
2021/05/20 04:50:10;;;;;;;6.97;4.32;;;;;;;9.15;84.84;98988.22;5025431;28;20029;-66
2021/05/20 04:52:36;;;;;;;6.40;5.03;;;;;;;9.10;85.19;98997.88;5025661;28;20029;-66
2021/05/20 04:55:01;;;;;;;5.75;5.15;;;;;;;9.17;84.91;98996.97;5025329;28;20125;-66
2021/05/20 04:57:27;;;;;;;7.32;5.13;;;;;;;9.26;85.24;98991.63;5025205;28;20029;-66
2021/05/20 04:59:52;;;;;;;7.68;5.63;;;;;;;9.21;84.82;98998.69;5025236;28;20092;-66
2021/05/20 05:02:17;;;;;;;6.00;5.22;;;;;;;9.23;84.62;98991.63;5024968;28;20037;-66
2021/05/20 05:04:43;;;;;;;8.55;5.93;;;;;;;9.25;85.17;98995.13;5025156;28;20037;-66
2021/05/20 05:07:08;;;;;;;6.35;5.07;;;;;;;9.35;85.06;99007.31;5024609;28;20320;-66
2021/05/20 05:09:34;;;;;;;8.35;6.88;;;;;;;9.42;85.45;99003.72;5025099;28;20055;-66
2021/05/20 05:12:00;;;;;;;7.28;6.47;;;;;;;9.54;85.54;99003.63;5025043;28;20024;-66
2021/05/20 05:14:25;;;;;;;7.05;6.15;;;;;;;9.53;84.98;99005.41;5025003;28;20084;-66
2021/05/20 05:16:50;;;;;;;7.20;6.32;;;;;;;9.61;86.58;99021.06;5024869;28;20375;-66
2021/05/20 05:19:16;;;;;;;8.90;7.00;;;;;;;9.65;85.31;99018.41;5024901;28;20026;-66
2021/05/20 05:21:41;;;;;;;8.73;7.47;;;;;;;9.77;85.92;99025.28;5024868;28;20036;-66
2021/05/20 05:24:09;;;;;;;9.18;7.78;;;;;;;9.83;85.71;99022.59;5024858;28;20320;-66
2021/05/20 05:26:34;;;;;;;8.30;6.63;;;;;;;9.79;85.02;99019.16;5024930;28;20018;-66
2021/05/20 05:29:00;;;;;;;8.10;7.25;;;;;;;9.86;85.26;99023.47;5024739;28;20085;-66
2021/05/20 05:31:26;;;;;;;11.60;7.43;;;;;;;10.04;85.29;99022.41;5024701;28;20387;-66
2021/05/20 05:33:52;;;;;;;6.95;6.25;;;;;;;10.11;85.09;99019.72;5024669;28;20026;-66
2021/05/20 05:36:17;;;;;;;8.07;7.28;;;;;;;10.18;84.91;99021.38;5024540;28;20299;-66
2021/05/20 05:38:43;;;;;;;8.18;7.20;;;;;;;10.22;85.02;99030.13;5024651;28;20049;-66
2021/05/20 05:41:08;;;;;;;10.73;7.78;;;;;;;10.26;84.73;99027.44;5024524;28;20331;-66
2021/05/20 05:43:34;;;;;;;9.65;8.35;;;;;;;10.34;85.38;99032.56;5024492;28;20216;-66
2021/05/20 05:45:59;;;;;;;9.90;8.15;;;;;;;10.40;85.39;99043.91;5024494;28;20216;-66
2021/05/20 05:48:25;;;;;;;8.13;7.15;;;;;;;10.38;85.52;99029.03;5024436;28;20053;-66
2021/05/20 05:50:52;;;;;;;10.00;8.15;;;;;;;10.42;84.82;99038.63;5024382;28;20076;-66
2021/05/20 05:53:18;;;;;;;8.82;7.40;;;;;;;10.55;84.48;99037.59;5024315;28;20018;-66
2021/05/20 05:55:43;;;;;;;10.65;6.03;;;;;;;10.64;83.80;99042.75;5024280;28;20063;-66
2021/05/20 05:58:08;;;;;;;6.70;5.43;;;;;;;10.67;83.72;99040.91;5024303;28;20033;-66
2021/05/20 06:00:35;;;;;;;7.13;6.43;;;;;;;10.73;83.09;99046.09;5024266;28;20063;-66
2021/05/20 06:03:02;;;;;;;7.25;5.30;;;;;;;10.82;81.96;99042.47;5024013;28;20333;-66
2021/05/20 06:05:27;;;;;;;6.78;5.28;;;;;;;10.77;83.17;99049.56;5024209;28;20343;-66
2021/05/20 06:07:54;;;;;;;6.80;5.30;;;;;;;10.71;82.44;99052.28;5024201;28;20026;-66
2021/05/20 06:10:20;;;;;;;7.65;6.03;;;;;;;10.79;83.15;99047.81;5024195;28;20050;-66
2021/05/20 06:12:46;;;;;;;5.80;4.95;;;;;;;10.81;83.18;99049.53;5024197;28;20343;-66
2021/05/20 06:15:11;;;;;;;6.50;4.50;;;;;;;10.83;83.31;99052.13;5024052;28;20025;-66
2021/05/20 06:17:38;;;;;;;6.10;5.03;;;;;;;10.81;82.73;99052.16;5024197;28;20097;-66
2021/05/20 06:20:05;;;;;;;7.35;5.20;;;;;;;10.83;83.01;99060.03;5028235;28;20018;-66
2021/05/20 06:22:31;;;;;;;7.05;4.93;;;;;;;10.86;83.20;99054.72;5028123;28;20049;-66
2021/05/20 06:24:56;;;;;;;4.70;4.20;;;;;;;10.97;82.71;99062.47;5028087;28;20034;-66
2021/05/20 06:27:26;;;;;;;6.88;5.00;;;;;;;11.22;82.06;99059.44;5028160;28;20336;-66
2021/05/20 06:29:52;;;;;;;7.32;4.57;;;;;;;11.54;81.01;99062.44;5028008;28;20071;-66
2021/05/20 06:32:17;;;;;;;5.85;4.00;;;;;;;11.61;80.03;99058.81;5028017;28;20033;-66
2021/05/20 06:34:43;;;;;;;3.88;3.47;;;;;;;11.67;79.89;99061.38;5028045;28;20260;-66
2021/05/20 06:37:08;;;;;;;3.70;3.40;;;;;;;11.83;79.76;99054.94;5027886;28;20021;-66
2021/05/20 06:39:33;;;;;;;4.57;3.60;;;;;;;12.08;79.66;99064.16;5028250;28;20033;-66
2021/05/20 06:41:59;;;;;;;3.97;3.13;;;;;;;12.32;77.87;99065.47;5027839;28;20080;-66
2021/05/20 06:44:24;;;;;;;3.75;2.85;;;;;;;12.54;76.57;99078.22;5027777;28;20280;-66
2021/05/20 06:46:50;;;;;;;3.40;3.10;;;;;;;12.62;76.58;99076.28;5028004;28;20013;-66
2021/05/20 06:49:15;;;;;;;4.22;3.83;;;;;;;12.62;76.61;99076.28;5027680;28;20021;-66
2021/05/20 06:51:40;;;;;;;3.95;3.40;;;;;;;12.53;77.04;99081.75;5027648;28;20085;-66
2021/05/20 06:54:06;;;;;;;3.10;2.80;;;;;;;12.51;76.66;99083.56;5027834;28;20028;-66
2021/05/20 06:56:32;;;;;;;4.00;3.58;;;;;;;12.52;77.48;99085.28;5027516;28;20021;-66
2021/05/20 07:01:48;;;;;;;3.50;2.47;;;;;;;12.58;75.75;99085.19;5027225;28;20040;-66
2021/05/20 07:04:14;;;;;;;4.07;3.25;;;;;;;12.48;75.79;99086.25;5027717;28;20344;-66
2021/05/20 07:06:40;;;;;;;4.75;3.67;;;;;;;12.47;78.29;99081.00;5027375;28;20026;-66
2021/05/20 07:09:05;;;;;;;5.07;3.97;;;;;;;12.56;76.93;99086.97;5027334;28;20026;-66
2021/05/20 07:11:31;;;;;;;3.83;3.40;;;;;;;12.60;76.13;99083.34;5027263;28;20029;-66
2021/05/20 07:13:57;;;;;;;6.53;3.35;;;;;;;12.72;76.34;99083.09;5027274;28;20046;-66
2021/05/20 07:16:22;;;;;;;4.53;4.13;;;;;;;12.72;77.42;99093.69;5027107;28;20021;-66
2021/05/20 07:18:48;;;;;;;4.55;3.55;;;;;;;12.85;75.12;99089.88;5027177;28;20030;-66
2021/05/20 07:21:14;;;;;;;3.70;3.13;;;;;;;12.77;74.15;99094.47;5027136;28;20237;-66
2021/05/20 07:23:39;;;;;;;4.00;3.50;;;;;;;12.78;74.36;99087.38;5027052;28;20137;-66
2021/05/20 07:26:04;;;;;;;3.90;3.25;;;;;;;12.89;74.78;99088.94;5027034;28;20037;-66
2021/05/20 07:28:31;;;;;;;3.70;3.30;;;;;;;12.87;74.08;99093.38;5026884;28;20100;-66
2021/05/20 07:30:56;;;;;;;3.47;3.08;;;;;;;12.79;74.09;99095.28;5026837;28;20030;-66
2021/05/20 07:33:23;;;;;;;4.03;3.00;;;;;;;12.83;74.55;99091.69;5026890;28;20259;-66
2021/05/20 07:35:48;;;;;;;3.78;3.20;;;;;;;12.83;74.97;99091.69;5026797;28;20025;-66
2021/05/20 07:38:14;;;;;;;4.25;3.50;;;;;;;12.63;74.67;99088.56;5026819;28;20352;-66
2021/05/20 07:40:39;;;;;;;3.88;2.70;;;;;;;12.84;75.10;99096.06;5026755;28;20025;-66
2021/05/20 07:43:04;;;;;;;6.55;3.17;;;;;;;12.93;75.02;99093.22;5026705;28;20026;-66
2021/05/20 07:45:30;;;;;;;2.97;2.50;;;;;;;13.12;75.33;99096.38;5026657;28;20030;-66
2021/05/20 07:47:55;;;;;;;3.50;2.47;;;;;;;13.45;72.74;99100.88;5026618;28;20032;-66
2021/05/20 07:50:21;;;;;;;3.05;2.60;;;;;;;13.90;73.06;99091.84;5026582;28;20051;-66
2021/05/20 07:52:47;;;;;;;4.07;2.63;;;;;;;14.01;72.72;99091.56;5026558;28;20026;-66
2021/05/20 07:55:12;;;;;;;4.07;2.72;;;;;;;13.87;71.63;99088.41;5026429;28;20076;-66
2021/05/20 07:57:38;;;;;;;4.45;2.38;;;;;;;14.09;71.59;99087.81;5026701;28;20033;-66
2021/05/20 08:00:06;;;;;;;4.60;2.70;;;;;;;14.07;69.50;99094.03;5026322;28;20026;-66
2021/05/20 08:02:38;;;;;;;3.20;2.38;;;;;;;14.09;69.98;99092.25;5026216;28;20046;-66
2021/05/20 08:05:11;;;;;;;2.85;2.35;;;;;;;13.62;71.22;99095.19;5026280;28;20036;-66
2021/05/20 08:08:25;;;;;;;2.88;2.28;;;;;;;13.94;70.72;99092.63;5025103;28;20022;-66
2021/05/20 08:12:48;;;;;;;3.28;2.15;;;;;;;16.83;63.13;99082.59;5026417;28;20022;-66
2021/05/20 08:15:14;;;;;;;2.50;1.88;;;;;;;16.97;61.93;99082.97;5026083;28;20217;-66
2021/05/20 08:17:39;;;;;;;3.03;2.22;;;;;;;17.37;59.30;99089.41;5024868;28;20033;-66
2021/05/20 08:20:06;;;;;;;4.63;1.70;;;;;;;17.61;57.97;99093.78;5025996;28;20022;-66
2021/05/20 08:22:31;;;;;;;2.03;1.30;;;;;;;16.87;58.13;99092.19;5025985;28;20026;-66
2021/05/20 08:24:58;;;;;;;1.83;1.40;;;;;;;16.40;60.79;99095.69;5025910;28;20018;-66
2021/05/20 08:27:23;;;;;;;2.72;2.00;;;;;;;16.29;61.27;99092.53;5025836;28;20316;-66
2021/05/20 08:29:49;;;;;;;1.60;1.30;;;;;;;16.08;59.35;99093.28;5025897;28;20093;-67
2021/05/20 08:32:16;;;;;;;2.28;1.50;;;;;;;16.22;62.65;99091.00;5026046;28;20028;-67
2021/05/20 08:34:41;;;;;;;1.20;1.10;;;;;;;15.96;62.23;99079.53;5025764;28;20026;-66
2021/05/20 08:37:07;;;;;;;3.38;1.50;;;;;;;16.11;59.10;99082.53;5025609;28;20211;-66
2021/05/20 08:39:33;;;;;;;1.45;1.35;;;;;;;16.69;59.36;99087.56;5025647;28;20224;-66
2021/05/20 08:41:59;;;;;;;1.67;1.38;;;;;;;18.39;55.92;99070.06;5024759;28;20089;-66
2021/05/20 08:44:29;;;;;;;1.90;1.77;;;;;;;19.47;53.69;99074.81;5025545;28;20316;-66
2021/05/20 08:46:58;;;;;;;1.50;1.10;;;;;;;19.53;51.22;99076.31;5025525;28;20022;-66
2021/05/20 08:49:24;;;;;;;1.55;1.33;;;;;;;18.19;54.40;99080.66;5025423;28;20022;-66
2021/05/20 08:51:50;;;;;;;1.45;1.30;;;;;;;17.33;57.83;99085.16;5025440;28;20148;-66
2021/05/20 08:54:17;;;;;;;1.77;1.58;;;;;;;16.79;57.00;99088.09;5025368;28;20033;-66
2021/05/20 08:56:48;;;;;;;1.45;1.35;;;;;;;16.07;62.05;99086.22;5025500;28;20041;-66
2021/05/20 08:59:15;;;;;;;2.53;1.30;;;;;;;15.97;63.19;99084.78;5025304;28;20344;-66
2021/05/20 09:01:43;;;;;;;1.52;1.27;;;;;;;15.94;62.59;99084.91;5025000;28;20094;-66
2021/05/20 09:04:10;;;;;;;4.25;1.88;;;;;;;15.45;63.37;99084.78;5025489;28;20089;-66
2021/05/20 09:06:57;;;;;;;2.22;1.73;;;;;;;15.29;61.55;99087.91;5025383;28;20021;-66
2021/05/20 09:09:29;;;;;;;3.15;1.52;;;;;;;15.36;64.39;99082.38;5025105;28;20026;-66
2021/05/20 09:11:57;;;;;;;1.20;1.10;;;;;;;15.16;63.71;99084.78;5025055;28;20021;-66
2021/05/20 09:14:40;;;;;;;3.42;1.10;;;;;;;15.26;62.88;99078.28;5025256;28;20030;-66
2021/05/20 09:17:13;;;;;;;1.13;1.00;;;;;;;15.07;62.65;99082.41;5024864;28;20232;-66
2021/05/20 09:19:41;;;;;;;3.08;1.48;;;;;;;15.16;64.17;99085.63;5024861;28;20037;-66
2021/05/20 09:22:12;;;;;;;3.00;1.20;;;;;;;15.13;61.96;99092.81;5024873;28;20025;-66
2021/05/20 09:24:48;;;;;;;2.75;0.98;;;;;;;15.29;61.81;99086.13;5024854;28;20380;-66
2021/05/20 09:27:35;;;;;;;3.05;1.50;;;;;;;15.30;62.43;99085.22;5024800;28;20049;-66
2021/05/20 09:30:10;;;;;;;1.33;1.15;;;;;;;15.27;62.68;99087.97;5024992;28;20050;-66
2021/05/20 09:32:41;;;;;;;1.67;1.10;;;;;;;15.53;62.00;99088.03;5024672;28;20033;-66
2021/05/20 09:35:08;;;;;;;1.13;1.05;;;;;;;15.61;60.95;99096.63;5024714;28;20048;-66
2021/05/20 09:37:45;;;;;;;4.50;1.40;;;;;;;15.64;62.38;99088.56;5024537;28;20018;-66
2021/05/20 09:40:11;;;;;;;1.63;1.30;;;;;;;15.67;62.86;99090.25;5024705;28;20352;-66
2021/05/20 09:42:37;;;;;;;1.48;0.90;;;;;;;15.57;61.45;99097.66;5024505;28;20305;-66
2021/05/20 09:45:07;;;;;;;1.23;1.05;;;;;;;15.57;61.65;99097.66;5024505;28;20026;-66
2021/05/20 09:47:33;;;;;;;2.60;1.00;;;;;;;15.61;60.75;99096.63;5024707;28;20077;-66
2021/05/20 09:50:03;;;;;;;0.90;0.70;;;;;;;15.61;61.84;99091.31;5024385;28;20325;-66
2021/05/20 09:52:28;;;;;;;0.93;0.82;;;;;;;15.25;60.91;99086.28;5024270;28;20036;-66
2021/05/20 09:54:55;;;;;;;1.77;1.23;;;;;;;15.25;60.33;99087.13;5024604;28;20030;-66
2021/05/20 09:57:31;;;;;;;1.38;1.00;;;;;;;15.36;63.74;99084.16;5024296;28;20085;-66
2021/05/20 10:00:19;;;;;;;1.67;0.98;;;;;;;15.46;62.79;99086.50;5024310;28;20097;-66
2021/05/20 10:02:45;;;;;;;1.25;1.15;;;;;;;15.57;60.59;99084.41;5024064;28;20093;-66
2021/05/20 10:05:24;;;;;;;1.02;0.90;;;;;;;15.58;62.62;99090.53;5024464;28;20269;-66
2021/05/20 10:07:50;;;;;;;4.03;1.30;;;;;;;15.72;63.63;99089.19;5024307;28;20030;-66
2021/05/20 10:10:17;;;;;;;1.52;1.15;;;;;;;15.54;60.96;99088.91;5024179;28;20032;-66
2021/05/20 10:12:46;;;;;;;2.35;1.13;;;;;;;15.70;61.63;99083.06;5024122;28;20026;-66
2021/05/20 10:15:15;;;;;;;1.33;0.90;;;;;;;16.07;60.01;99070.28;5024142;28;20034;-66
2021/05/20 10:17:42;;;;;;;3.03;0.80;;;;;;;16.27;59.27;99083.75;5024191;28;20033;-66
2021/05/20 10:20:09;;;;;;;0.88;0.82;;;;;;;16.67;59.05;99078.78;5024125;28;20022;-66
2021/05/20 10:22:34;;;;;;;2.88;0.88;;;;;;;16.78;57.31;99076.59;5024058;28;20036;-66
2021/05/20 10:25:01;;;;;;;1.95;1.10;;;;;;;16.65;57.41;99064.66;5024046;28;20025;-66
2021/05/20 10:27:28;;;;;;;1.70;0.98;;;;;;;17.11;56.93;99070.00;5024075;28;20014;-66
2021/05/20 10:29:57;;;;;;;1.70;0.70;;;;;;;17.06;55.67;99066.63;5024033;28;20071;-66
2021/05/20 10:32:22;;;;;;;0.80;0.80;;;;;;;17.22;53.07;99069.59;5024254;28;20022;-66
2021/05/20 10:35:08;;;;;;;0.98;0.68;;;;;;;17.32;54.16;99067.41;5023982;28;20045;-66
2021/05/20 10:37:38;;;;;;;0.77;0.60;;;;;;;17.09;53.89;99071.84;5023880;28;20049;-66
2021/05/20 10:40:10;;;;;;;1.45;0.73;;;;;;;17.39;52.28;99058.25;5024217;28;20029;-66
2021/05/20 10:42:39;;;;;;;1.42;0.90;;;;;;;17.66;53.47;99057.19;5023867;28;20029;-66
2021/05/20 10:45:22;;;;;;;1.40;0.75;;;;;;;18.01;53.63;99048.59;5023886;28;20030;-66
2021/05/20 10:48:03;;;;;;;3.72;1.63;;;;;;;18.25;52.87;99042.19;5023917;28;20025;-66
2021/05/20 10:50:51;;;;;;;1.80;0.70;;;;;;;18.64;51.48;99051.16;5023801;28;20097;-66
2021/05/20 10:53:44;;;;;;;1.70;0.68;;;;;;;18.45;51.89;99050.25;5023778;28;20033;-66
2021/05/20 10:56:16;;;;;;;0.95;0.60;;;;;;;18.39;51.77;99055.84;5023716;28;20064;-66
2021/05/20 10:58:47;;;;;;;0.70;0.70;;;;;;;18.30;51.52;99050.88;5023774;28;20025;-66
2021/05/20 11:01:23;;;;;;;2.80;0.80;;;;;;;17.94;52.54;99063.13;5023866;28;20030;-66
2021/05/20 11:03:50;;;;;;;3.40;0.93;;;;;;;17.69;52.91;99049.97;5023837;28;20275;-66
2021/05/20 11:06:17;;;;;;;0.70;0.70;;;;;;;17.42;55.90;99053.69;5027683;28;20021;-66
2021/05/20 11:08:42;;;;;;;1.15;0.60;;;;;;;17.31;54.98;99044.41;5027337;28;20053;-66
2021/05/20 11:11:22;;;;;;;3.67;1.00;;;;;;;17.69;52.47;99049.09;5027346;28;20030;-66
2021/05/20 11:13:47;;;;;;;0.98;0.88;;;;;;;18.93;53.66;99048.03;5027298;28;20056;-66
2021/05/20 11:16:14;;;;;;;1.02;0.90;;;;;;;18.80;52.92;99039.72;5027199;28;20021;-66
2021/05/20 11:18:39;;;;;;;0.80;0.80;;;;;;;18.64;51.80;99040.50;5027202;28;20097;-66
2021/05/20 11:21:05;;;;;;;2.35;0.80;;;;;;;18.84;53.15;99038.66;5027115;28;20022;-66
2021/05/20 11:23:32;;;;;;;2.72;1.13;;;;;;;18.59;52.32;99031.81;5027076;28;20032;-66
2021/05/20 11:26:08;;;;;;;4.95;1.20;;;;;;;18.37;55.03;99025.72;5027074;28;20029;-66
2021/05/20 11:29:01;;;;;;;2.65;1.63;;;;;;;18.26;52.59;99023.47;5026952;28;20024;-66
2021/05/20 11:31:27;;;;;;;2.30;1.52;;;;;;;17.93;53.17;99018.75;5026967;28;20030;-66
2021/05/20 11:34:09;;;;;;;1.83;1.45;;;;;;;18.19;53.61;99027.34;5026897;28;20090;-66
2021/05/20 11:36:39;;;;;;;2.67;2.00;;;;;;;18.07;52.94;99022.56;5026786;28;20018;-66
2021/05/20 11:39:08;;;;;;;3.03;2.30;;;;;;;17.79;55.01;99015.81;5026779;28;20067;-66
2021/05/20 11:41:35;;;;;;;2.90;1.98;;;;;;;17.88;53.71;99015.44;5026986;28;20033;-66
2021/05/20 11:44:05;;;;;;;4.35;2.28;;;;;;;18.09;55.78;99025.16;5026944;28;20068;-66